Time;durP1;ratioP1;P1;durP2;ratioP2;P2;SDS_P1;SDS_P2;PMS_P1;PMS_P2;Temp;Humidity;BMP_temperature;BMP_pressure;BME280_temperature;BME280_humidity;BME280_pressure;Samples;Min_cycle;Max_cycle;Signal;HPM_P1;HPM_P2
2022/05/04 00:00:50;;;;;;;7.63;2.15;;;8.60;99.90;;;;;;5055514;28;20042;-63
2022/05/04 00:03:16;;;;;;;7.82;2.20;;;8.60;99.90;;;;;;5057631;28;20120;-65
2022/05/04 00:05:41;;;;;;;3.88;1.60;;;8.60;99.90;;;;;;5056706;28;20086;-62
2022/05/04 00:08:07;;;;;;;5.15;1.73;;;8.60;99.90;;;;;;5056846;28;20053;-65
2022/05/04 00:10:34;;;;;;;5.65;1.75;;;8.60;99.90;;;;;;5051214;28;20044;-63
2022/05/04 00:13:01;;;;;;;8.30;2.20;;;8.60;99.90;;;;;;5057889;28;20044;-62
2022/05/04 00:15:28;;;;;;;7.70;2.22;;;8.70;99.90;;;;;;5057379;28;20040;-63
2022/05/04 00:17:53;;;;;;;5.57;1.65;;;8.70;99.90;;;;;;5056507;28;20090;-63
2022/05/04 00:20:19;;;;;;;4.22;1.73;;;8.60;99.90;;;;;;5057313;28;20060;-65
2022/05/04 00:22:45;;;;;;;7.05;2.10;;;8.60;99.90;;;;;;5054229;28;20029;-64
2022/05/04 00:25:11;;;;;;;5.53;1.50;;;8.50;99.90;;;;;;5055154;28;20491;-62
2022/05/04 00:27:37;;;;;;;6.35;1.77;;;8.50;99.90;;;;;;5051805;28;20291;-64
2022/05/04 00:30:07;;;;;;;4.50;1.58;;;8.50;99.90;;;;;;5054137;28;20041;-63
2022/05/04 00:32:32;;;;;;;5.93;2.05;;;8.50;99.90;;;;;;5051309;28;20041;-63
2022/05/04 00:34:59;;;;;;;7.95;1.92;;;8.50;99.90;;;;;;5052482;28;20115;-69
2022/05/04 00:37:25;;;;;;;9.20;2.13;;;8.50;99.90;;;;;;5056400;28;20501;-67
2022/05/04 00:39:50;;;;;;;5.70;2.20;;;8.50;99.90;;;;;;5059116;28;20091;-62
2022/05/04 00:42:18;;;;;;;10.45;2.40;;;8.50;99.90;;;;;;5055959;28;20094;-63
2022/05/04 00:44:47;;;;;;;9.98;2.35;;;8.50;99.90;;;;;;5052269;28;20037;-65
2022/05/04 00:47:13;;;;;;;8.88;1.90;;;8.50;99.90;;;;;;5054858;28;20057;-65
2022/05/04 00:49:41;;;;;;;11.77;2.30;;;8.40;99.90;;;;;;5058347;28;20502;-67
2022/05/04 00:52:08;;;;;;;7.72;1.75;;;8.40;99.90;;;;;;5054001;28;20052;-66
2022/05/04 00:54:35;;;;;;;7.50;2.03;;;8.40;99.90;;;;;;5053481;28;20072;-65
2022/05/04 00:57:02;;;;;;;8.52;2.15;;;8.40;99.90;;;;;;5056588;28;20049;-62
2022/05/04 00:59:31;;;;;;;4.75;1.55;;;8.40;99.90;;;;;;5051981;28;20052;-70
2022/05/04 01:01:57;;;;;;;7.18;1.98;;;8.40;99.90;;;;;;5058917;28;20053;-65
2022/05/04 01:04:24;;;;;;;5.85;1.73;;;8.40;99.90;;;;;;5058286;28;20095;-63
2022/05/04 01:06:50;;;;;;;8.05;2.08;;;8.40;99.90;;;;;;5055220;28;20083;-63
2022/05/04 01:09:16;;;;;;;9.75;2.42;;;8.40;99.90;;;;;;5053880;28;20163;-66
2022/05/04 01:11:42;;;;;;;8.57;1.63;;;8.40;99.90;;;;;;5057295;28;20041;-62
2022/05/04 01:14:10;;;;;;;5.57;1.52;;;8.40;99.90;;;;;;5053942;28;20049;-62
2022/05/04 01:16:39;;;;;;;6.40;2.13;;;8.40;99.90;;;;;;5058386;28;20049;-63
2022/05/04 01:19:06;;;;;;;6.88;1.50;;;8.40;99.90;;;;;;5057260;28;20048;-63
2022/05/04 01:21:32;;;;;;;6.30;1.85;;;8.40;99.90;;;;;;5058538;28;20094;-63
2022/05/04 01:23:59;;;;;;;9.02;2.30;;;8.30;99.90;;;;;;5055239;28;20079;-69
2022/05/04 01:26:25;;;;;;;8.00;2.10;;;8.30;99.90;;;;;;5054586;28;20048;-63
2022/05/04 01:28:51;;;;;;;7.88;2.30;;;8.30;99.90;;;;;;5057036;28;20044;-62
2022/05/04 01:31:16;;;;;;;7.57;2.22;;;8.30;99.90;;;;;;5057786;28;20048;-64
2022/05/04 01:33:42;;;;;;;3.30;2.05;;;8.30;99.90;;;;;;5050325;28;20051;-68
2022/05/04 01:36:08;;;;;;;6.25;2.13;;;8.30;99.90;;;;;;5053573;28;20066;-63
2022/05/04 01:38:34;;;;;;;7.47;2.42;;;8.30;99.90;;;;;;5052188;28;20052;-67
2022/05/04 01:41:00;;;;;;;7.55;3.05;;;8.20;99.90;;;;;;5058440;28;20132;-64
2022/05/04 01:43:26;;;;;;;5.25;1.88;;;8.30;99.90;;;;;;5058983;28;20169;-62
2022/05/04 01:45:52;;;;;;;6.32;1.80;;;8.20;99.90;;;;;;5058176;28;20089;-62
2022/05/04 01:48:17;;;;;;;11.00;2.65;;;8.20;99.90;;;;;;5054200;28;20512;-64
2022/05/04 01:50:43;;;;;;;6.70;2.65;;;8.20;99.90;;;;;;5059000;28;20041;-63
2022/05/04 01:53:08;;;;;;;5.50;2.05;;;8.20;99.90;;;;;;5055288;28;20400;-65
2022/05/04 01:55:35;;;;;;;4.40;1.95;;;8.30;99.90;;;;;;5057235;28;20400;-62
2022/05/04 01:58:04;;;;;;;7.32;1.83;;;8.30;99.90;;;;;;5053828;28;20407;-63
2022/05/04 02:00:30;;;;;;;9.45;2.20;;;8.30;99.90;;;;;;5055584;28;20135;-64
2022/05/04 02:02:55;;;;;;;8.18;2.13;;;8.20;99.90;;;;;;5056516;28;20120;-65
2022/05/04 02:05:22;;;;;;;10.73;2.33;;;8.20;99.90;;;;;;5055246;28;20049;-63
2022/05/04 02:07:48;;;;;;;3.95;1.77;;;8.20;99.90;;;;;;5055934;28;20045;-62
2022/05/04 02:10:15;;;;;;;4.95;2.20;;;8.10;99.90;;;;;;5053058;28;20044;-62
2022/05/04 02:12:41;;;;;;;5.93;2.15;;;8.10;99.90;;;;;;5057382;28;20486;-63
2022/05/04 02:15:08;;;;;;;12.32;2.83;;;8.10;99.90;;;;;;5052855;28;20056;-62
2022/05/04 02:17:35;;;;;;;6.47;2.13;;;8.10;99.90;;;;;;5057316;28;20127;-65
2022/05/04 02:20:01;;;;;;;8.52;2.47;;;8.10;99.90;;;;;;5054470;28;20049;-62
2022/05/04 02:22:27;;;;;;;9.95;2.33;;;8.10;99.90;;;;;;5056735;28;20041;-62
2022/05/04 02:24:52;;;;;;;2.97;1.83;;;8.10;99.90;;;;;;5051719;28;20510;-64
2022/05/04 02:27:18;;;;;;;9.50;2.38;;;8.10;99.90;;;;;;5052365;28;20393;-62
2022/05/04 02:29:44;;;;;;;10.55;3.00;;;8.10;99.90;;;;;;5055314;28;20049;-62
2022/05/04 02:32:09;;;;;;;3.85;2.25;;;8.10;99.90;;;;;;5053455;28;20045;-63
2022/05/04 02:37:54;;;;;;;7.38;2.35;;;8.10;99.90;;;;;;5055473;28;20502;-63
2022/05/04 02:40:06;;;;;;;5.50;2.05;;;8.10;99.90;;;;;;5055746;28;20418;-62
2022/05/04 02:42:31;;;;;;;5.78;2.10;;;8.10;99.90;;;;;;5059761;28;20051;-64
2022/05/04 02:44:58;;;;;;;10.43;2.42;;;8.10;99.90;;;;;;5057341;28;20037;-62
2022/05/04 02:47:24;;;;;;;7.03;1.98;;;8.10;99.90;;;;;;5058116;28;20498;-62
2022/05/04 02:49:50;;;;;;;6.28;2.00;;;8.10;99.90;;;;;;5058348;28;20059;-62
2022/05/04 02:52:15;;;;;;;4.25;2.00;;;8.10;99.90;;;;;;5054443;28;20419;-64
2022/05/04 02:54:41;;;;;;;9.80;2.50;;;8.10;99.90;;;;;;5057386;28;20057;-63
2022/05/04 02:57:07;;;;;;;7.63;1.95;;;8.10;99.90;;;;;;5058021;28;20048;-65
2022/05/04 02:59:32;;;;;;;13.75;2.55;;;8.10;99.90;;;;;;5057126;28;20041;-68
2022/05/04 03:04:43;;;;;;;11.48;2.30;;;8.10;99.90;;;;;;5058742;28;20045;-64
2022/05/04 03:07:09;;;;;;;7.97;1.83;;;8.10;99.90;;;;;;5059746;28;20045;-62
2022/05/04 03:09:34;;;;;;;8.57;2.58;;;8.10;99.90;;;;;;5055445;28;20506;-65
2022/05/04 03:12:01;;;;;;;9.27;2.80;;;8.10;99.90;;;;;;5059438;28;20669;-66
2022/05/04 03:14:28;;;;;;;6.13;2.38;;;8.00;99.90;;;;;;5058895;28;20049;-64
2022/05/04 03:16:55;;;;;;;8.95;2.20;;;8.10;99.90;;;;;;5060101;28;20463;-65
2022/05/04 03:19:22;;;;;;;6.13;2.33;;;8.00;99.90;;;;;;5057346;28;20499;-64
2022/05/04 03:21:48;;;;;;;4.97;2.47;;;8.00;99.90;;;;;;5058751;28;20146;-65
2022/05/04 03:24:15;;;;;;;5.85;1.90;;;8.00;99.90;;;;;;5056294;28;20051;-64
2022/05/04 03:26:41;;;;;;;4.53;2.22;;;8.00;99.90;;;;;;5054923;28;20052;-64
2022/05/04 03:29:07;;;;;;;6.80;2.50;;;8.00;99.90;;;;;;5056748;28;20040;-62
2022/05/04 03:31:32;;;;;;;13.00;2.47;;;8.00;99.90;;;;;;5052754;28;20418;-63
2022/05/04 03:33:59;;;;;;;5.43;2.35;;;8.00;99.90;;;;;;5059456;28;20518;-69
2022/05/04 03:36:25;;;;;;;7.40;2.20;;;8.00;99.90;;;;;;5062058;28;20056;-63
2022/05/04 03:38:51;;;;;;;5.13;1.38;;;7.90;99.90;;;;;;5054712;28;20693;-64
2022/05/04 03:41:17;;;;;;;5.57;2.13;;;8.00;99.90;;;;;;5054355;28;20458;-66
2022/05/04 03:43:42;;;;;;;5.75;1.73;;;8.00;99.90;;;;;;5061337;28;20053;-62
2022/05/04 03:46:28;;;;;;;9.75;2.15;;;7.90;99.90;;;;;;5060303;28;20094;-63
2022/05/04 03:48:56;;;;;;;5.85;1.70;;;8.00;99.90;;;;;;5055946;28;20083;-63
2022/05/04 03:51:23;;;;;;;7.32;1.92;;;8.00;99.90;;;;;;5052184;28;20457;-63
2022/05/04 03:53:51;;;;;;;3.78;1.85;;;8.00;99.90;;;;;;5053202;28;20289;-62
2022/05/04 03:56:17;;;;;;;6.75;1.83;;;7.90;99.90;;;;;;5052629;28;20068;-64
2022/05/04 03:58:44;;;;;;;6.25;1.63;;;8.00;99.90;;;;;;5059890;28;20077;-62
2022/05/04 04:01:09;;;;;;;4.43;1.40;;;7.90;99.90;;;;;;5056068;28;20044;-64
2022/05/04 04:03:35;;;;;;;8.05;2.33;;;7.90;99.90;;;;;;5056796;28;20566;-66
2022/05/04 04:06:01;;;;;;;5.85;1.90;;;8.00;99.90;;;;;;5057754;28;20028;-62
2022/05/04 04:08:29;;;;;;;7.60;2.05;;;8.00;99.90;;;;;;5058966;28;20510;-63
2022/05/04 04:10:55;;;;;;;3.88;1.70;;;8.00;99.90;;;;;;5059090;28;20044;-64
2022/05/04 04:13:21;;;;;;;6.40;1.80;;;8.00;99.90;;;;;;5058073;28;20678;-64
2022/05/04 04:15:51;;;;;;;2.75;1.60;;;8.00;99.90;;;;;;5052074;28;20144;-64
2022/05/04 04:18:25;;;;;;;5.40;2.15;;;8.00;99.90;;;;;;5057074;28;20041;-62
2022/05/04 04:23:36;;;;;;;7.10;2.40;;;7.90;99.90;;;;;;5059543;28;20048;-62
2022/05/04 04:26:04;;;;;;;6.93;2.38;;;7.90;99.90;;;;;;5055987;28;20505;-62
2022/05/04 04:28:30;;;;;;;5.28;2.03;;;7.90;99.90;;;;;;5055927;28;20128;-63
2022/05/04 04:30:56;;;;;;;8.98;2.60;;;7.90;99.90;;;;;;5052548;28;20052;-62
2022/05/04 04:33:29;;;;;;;7.88;2.15;;;7.90;99.90;;;;;;5056915;28;20511;-63
2022/05/04 04:35:58;;;;;;;8.85;2.17;;;8.00;99.90;;;;;;5057178;28;20080;-63
2022/05/04 04:38:25;;;;;;;7.40;2.38;;;8.00;99.90;;;;;;5055143;28;20155;-63
2022/05/04 04:40:50;;;;;;;4.38;2.63;;;8.00;99.90;;;;;;5059337;28;20045;-65
2022/05/04 04:43:17;;;;;;;6.78;2.08;;;8.00;99.90;;;;;;5057096;28;20048;-63
2022/05/04 04:45:46;;;;;;;5.28;2.38;;;8.00;99.90;;;;;;5055452;28;20044;-62
2022/05/04 04:48:15;;;;;;;4.55;1.85;;;8.00;99.90;;;;;;5059097;28;20419;-62
2022/05/04 04:50:40;;;;;;;7.38;2.20;;;8.00;99.90;;;;;;5052766;28;20045;-65
2022/05/04 04:53:06;;;;;;;6.47;2.42;;;8.00;99.90;;;;;;5058494;28;20040;-62
2022/05/04 04:55:32;;;;;;;7.57;2.42;;;8.00;99.90;;;;;;5055527;28;20056;-64
2022/05/04 04:57:58;;;;;;;11.57;2.78;;;8.00;99.90;;;;;;5053622;28;20254;-69
2022/05/04 05:00:24;;;;;;;6.43;2.30;;;8.00;99.90;;;;;;5056637;28;20047;-62
2022/05/04 05:02:50;;;;;;;3.78;2.00;;;8.10;99.90;;;;;;5055696;28;20348;-62
2022/05/04 05:05:16;;;;;;;4.57;2.60;;;8.10;99.90;;;;;;5056443;28;20049;-63
2022/05/04 05:07:41;;;;;;;7.28;2.72;;;8.10;99.90;;;;;;5058194;28;20410;-63
2022/05/04 05:10:07;;;;;;;6.97;2.10;;;8.10;99.90;;;;;;5055810;28;20051;-64
2022/05/04 05:12:33;;;;;;;8.40;2.85;;;8.10;99.90;;;;;;5056248;28;20382;-65
2022/05/04 05:17:44;;;;;;;8.02;2.20;;;8.10;99.90;;;;;;5053472;28;20045;-63
2022/05/04 05:20:10;;;;;;;5.63;2.10;;;8.20;99.90;;;;;;5038926;28;20044;-64
2022/05/04 05:22:36;;;;;;;5.10;1.83;;;8.20;99.90;;;;;;5059248;28;20459;-63
2022/05/04 05:25:02;;;;;;;9.07;2.00;;;8.20;99.90;;;;;;5056661;28;20531;-62
2022/05/04 05:27:31;;;;;;;8.18;2.28;;;8.20;99.90;;;;;;5056742;28;20127;-65
2022/05/04 05:29:57;;;;;;;5.22;1.75;;;8.20;99.90;;;;;;5056585;28;20128;-63
2022/05/04 05:32:23;;;;;;;6.00;2.00;;;8.30;99.90;;;;;;5056329;28;20116;-62
2022/05/04 05:34:49;;;;;;;8.77;2.30;;;8.20;99.90;;;;;;5056823;28;20218;-63
2022/05/04 05:37:14;;;;;;;5.97;2.00;;;8.30;99.90;;;;;;5056773;28;20079;-65
2022/05/04 05:39:40;;;;;;;7.78;2.30;;;8.30;99.90;;;;;;5056840;28;20097;-63
2022/05/04 05:42:07;;;;;;;12.02;2.33;;;8.30;99.90;;;;;;5058349;28;20029;-65
2022/05/04 05:44:32;;;;;;;7.03;2.38;;;8.30;99.90;;;;;;5058455;28;20052;-62
2022/05/04 05:46:59;;;;;;;8.50;2.88;;;8.40;99.90;;;;;;5058112;28;20464;-69
2022/05/04 05:49:25;;;;;;;11.57;2.33;;;8.40;99.90;;;;;;5054908;28;20053;-62
2022/05/04 05:51:51;;;;;;;3.53;1.42;;;8.50;99.90;;;;;;5054711;28;20040;-62
2022/05/04 05:54:17;;;;;;;6.93;1.80;;;8.50;99.90;;;;;;5053196;28;20458;-62
2022/05/04 05:56:42;;;;;;;8.38;2.10;;;8.50;99.90;;;;;;5054365;28;20077;-64
2022/05/04 05:59:08;;;;;;;5.05;1.92;;;8.50;99.90;;;;;;5059766;28;20041;-63
2022/05/04 06:01:34;;;;;;;6.90;2.15;;;8.50;99.90;;;;;;5057068;28;20036;-62
2022/05/04 06:03:59;;;;;;;4.75;2.00;;;8.50;99.90;;;;;;5056225;28;20056;-65
2022/05/04 06:06:25;;;;;;;8.68;2.53;;;8.60;99.90;;;;;;5054447;28;20373;-63
2022/05/04 06:08:50;;;;;;;3.80;1.95;;;8.50;99.90;;;;;;5052398;28;20056;-61
2022/05/04 06:11:16;;;;;;;4.68;2.25;;;8.50;99.90;;;;;;5055097;28;20080;-62
2022/05/04 06:13:41;;;;;;;10.15;2.55;;;8.50;99.90;;;;;;5054834;28;20049;-62
2022/05/04 06:16:07;;;;;;;4.63;2.10;;;8.50;99.90;;;;;;5053935;28;20079;-65
2022/05/04 06:18:32;;;;;;;8.88;2.00;;;8.60;99.90;;;;;;5061070;28;20044;-62
2022/05/04 06:21:00;;;;;;;5.90;1.88;;;8.60;99.90;;;;;;5061196;28;20055;-68
2022/05/04 06:23:25;;;;;;;7.65;2.17;;;8.70;99.90;;;;;;5064075;28;20032;-62
2022/05/04 06:25:51;;;;;;;8.20;2.05;;;8.70;99.90;;;;;;5061356;28;20047;-63
2022/05/04 06:28:16;;;;;;;5.15;2.00;;;8.70;99.90;;;;;;5056521;28;20049;-63
2022/05/04 06:36:10;;;;;;;9.43;2.13;;;8.90;99.90;;;;;;5060669;28;20084;-63
2022/05/04 06:38:36;;;;;;;9.80;1.70;;;8.90;99.90;;;;;;5054370;28;20125;-65
2022/05/04 06:41:05;;;;;;;6.53;1.75;;;9.00;99.90;;;;;;5058319;28;20211;-62
2022/05/04 06:43:32;;;;;;;7.57;1.90;;;9.20;99.90;;;;;;5057603;28;20137;-62
2022/05/04 06:45:59;;;;;;;4.32;2.25;;;9.00;99.90;;;;;;5056715;28;20522;-69
2022/05/04 06:48:25;;;;;;;4.15;1.50;;;9.00;99.90;;;;;;5060122;28;20420;-65
2022/05/04 06:50:50;;;;;;;3.92;1.65;;;9.00;99.90;;;;;;5059681;28;20129;-62
2022/05/04 06:53:16;;;;;;;6.60;1.65;;;9.00;99.90;;;;;;5067340;28;20076;-65
2022/05/04 06:55:41;;;;;;;7.28;1.88;;;9.00;99.90;;;;;;5062284;28;20447;-65
2022/05/04 06:58:07;;;;;;;6.25;1.83;;;9.10;99.90;;;;;;5057014;28;20049;-62
2022/05/04 07:00:32;;;;;;;6.82;1.52;;;9.10;99.90;;;;;;5059581;28;20037;-62
2022/05/04 07:02:59;;;;;;;7.63;1.45;;;9.10;99.90;;;;;;5061249;28;20102;-68
2022/05/04 07:05:25;;;;;;;6.30;1.58;;;9.20;99.90;;;;;;5052552;28;20080;-62
2022/05/04 07:07:50;;;;;;;9.30;1.90;;;9.30;99.90;;;;;;5054807;28;20040;-66
2022/05/04 07:10:16;;;;;;;5.78;1.70;;;9.30;99.90;;;;;;5054826;28;20135;-63
2022/05/04 07:12:41;;;;;;;10.13;1.92;;;9.30;99.90;;;;;;5054334;28;20123;-64
2022/05/04 07:15:07;;;;;;;5.43;1.70;;;9.40;99.90;;;;;;5049083;28;20275;-62
2022/05/04 07:17:33;;;;;;;4.75;1.70;;;9.40;99.90;;;;;;5061302;28;20044;-64
2022/05/04 07:19:59;;;;;;;7.32;1.60;;;9.40;99.90;;;;;;5029647;28;20065;-66
2022/05/04 07:22:25;;;;;;;8.13;2.00;;;9.30;99.90;;;;;;5058052;28;20127;-63
2022/05/04 07:24:50;;;;;;;5.47;1.80;;;9.40;99.90;;;;;;5061606;28;20189;-62
2022/05/04 07:27:17;;;;;;;3.35;1.13;;;9.40;99.90;;;;;;5057967;28;20479;-62
2022/05/04 07:29:44;;;;;;;3.75;1.75;;;9.40;99.90;;;;;;5058705;28;20055;-64
2022/05/04 07:32:10;;;;;;;2.92;1.45;;;9.50;99.90;;;;;;5057126;28;20075;-62
2022/05/04 07:34:37;;;;;;;5.40;2.47;;;9.50;99.90;;;;;;5059921;28;20145;-62
2022/05/04 07:37:03;;;;;;;8.52;1.80;;;9.50;99.90;;;;;;5054611;28;20127;-62
2022/05/04 07:42:26;;;;;;;8.13;1.70;;;10.80;99.90;;;;;;5049410;28;20415;-63
2022/05/04 07:45:01;;;;;;;10.90;2.65;;;9.50;99.90;;;;;;5062154;28;20071;-63
2022/05/04 07:47:29;;;;;;;9.15;3.22;;;9.60;99.90;;;;;;5064505;28;20115;-62
2022/05/04 07:49:55;;;;;;;6.15;1.95;;;9.60;99.90;;;;;;5064834;28;20063;-62
2022/05/04 07:52:21;;;;;;;5.00;1.90;;;9.60;99.90;;;;;;5065373;28;20044;-62
2022/05/04 07:54:47;;;;;;;4.53;1.30;;;9.50;99.90;;;;;;5063316;28;20478;-62
2022/05/04 07:57:13;;;;;;;6.60;1.73;;;9.60;99.90;;;;;;5066486;28;20051;-63
2022/05/04 07:59:38;;;;;;;7.18;2.55;;;9.60;99.90;;;;;;5052319;28;20148;-62
2022/05/04 08:04:49;;;;;;;4.70;1.42;;;9.80;99.90;;;;;;5064959;28;20057;-62
2022/05/04 08:07:16;;;;;;;6.15;2.00;;;9.80;99.90;;;;;;5047047;28;20461;-62
2022/05/04 08:09:42;;;;;;;13.02;2.00;;;9.90;99.90;;;;;;5059283;28;20045;-63
2022/05/04 08:12:11;;;;;;;4.40;1.50;;;9.90;99.90;;;;;;5066757;28;20387;-62
2022/05/04 08:14:36;;;;;;;3.25;1.58;;;9.90;99.90;;;;;;5047925;28;20124;-64
2022/05/04 08:17:02;;;;;;;13.82;2.13;;;10.00;99.90;;;;;;5046990;28;20120;-62
2022/05/04 08:19:28;;;;;;;5.85;1.88;;;10.00;99.90;;;;;;5047493;28;20084;-62
2022/05/04 08:21:54;;;;;;;5.43;1.17;;;10.10;99.90;;;;;;5045800;28;20068;-63
2022/05/04 08:24:21;;;;;;;8.10;1.60;;;10.10;99.90;;;;;;5046609;28;20406;-62
2022/05/04 08:26:46;;;;;;;5.53;1.45;;;10.20;99.90;;;;;;5047062;28;20091;-63
2022/05/04 08:29:12;;;;;;;4.50;1.00;;;10.20;99.90;;;;;;5044378;28;20089;-63
2022/05/04 08:31:40;;;;;;;4.50;1.65;;;10.30;99.90;;;;;;5045618;28;20036;-63
2022/05/04 08:34:07;;;;;;;6.10;2.38;;;10.20;99.90;;;;;;5046108;28;20049;-63
2022/05/04 08:36:37;;;;;;;5.60;1.63;;;10.30;99.90;;;;;;5045752;28;20052;-62
2022/05/04 08:39:07;;;;;;;5.60;1.80;;;10.40;99.90;;;;;;5044690;28;20049;-63
2022/05/04 08:41:38;;;;;;;7.10;1.83;;;10.50;99.90;;;;;;5045954;28;20045;-63
2022/05/04 08:44:06;;;;;;;7.53;1.58;;;10.50;99.90;;;;;;5045180;28;20423;-62
2022/05/04 08:46:34;;;;;;;3.70;1.67;;;10.60;99.90;;;;;;5046830;28;20099;-63
2022/05/04 08:49:02;;;;;;;7.40;2.33;;;10.60;99.90;;;;;;5046208;28;20151;-64
2022/05/04 08:51:30;;;;;;;7.25;1.73;;;10.60;99.90;;;;;;5046435;28;20055;-64
2022/05/04 08:53:56;;;;;;;12.10;1.98;;;10.60;99.90;;;;;;5047332;28;20037;-62
2022/05/04 08:56:22;;;;;;;7.32;2.22;;;10.40;99.90;;;;;;5046196;28;20051;-63
2022/05/04 08:58:47;;;;;;;5.50;1.45;;;10.40;99.90;;;;;;5045790;28;20056;-62
2022/05/04 09:01:13;;;;;;;4.32;1.17;;;10.50;99.90;;;;;;5046114;28;20048;-63
2022/05/04 09:03:39;;;;;;;5.45;1.73;;;10.50;99.90;;;;;;5046292;28;20454;-62
2022/05/04 09:06:05;;;;;;;7.82;1.67;;;10.60;99.90;;;;;;5045174;28;20507;-63
2022/05/04 09:08:50;;;;;;;5.80;1.83;;;10.70;99.90;;;;;;5046529;28;20502;-62
2022/05/04 09:11:19;;;;;;;9.05;2.05;;;10.60;99.90;;;;;;5045091;28;20099;-62
2022/05/04 09:13:48;;;;;;;5.72;1.30;;;10.60;99.90;;;;;;5046007;28;20052;-62
2022/05/04 09:16:33;;;;;;;3.10;1.30;;;10.70;99.90;;;;;;5051097;28;20041;-62
2022/05/04 09:19:05;;;;;;;4.40;1.63;;;10.70;99.90;;;;;;5045902;28;20048;-65
2022/05/04 09:21:31;;;;;;;7.35;1.30;;;10.80;99.90;;;;;;5049614;28;20045;-62
2022/05/04 09:23:56;;;;;;;4.70;1.45;;;10.90;99.90;;;;;;5054840;28;20082;-64
2022/05/04 09:26:22;;;;;;;5.47;1.65;;;11.00;99.90;;;;;;5052688;28;20482;-62
2022/05/04 09:28:56;;;;;;;4.65;1.00;;;11.10;99.90;;;;;;5053449;28;20037;-63
2022/05/04 09:31:26;;;;;;;6.88;1.60;;;11.30;99.90;;;;;;5050758;28;20084;-63
2022/05/04 09:33:54;;;;;;;6.80;1.55;;;11.30;99.90;;;;;;5062246;28;20489;-63
2022/05/04 09:45:14;;;;;;;5.00;1.90;;;11.50;99.90;;;;;;5056012;28;20495;-61
2022/05/04 09:47:47;;;;;;;4.28;1.70;;;11.50;99.90;;;;;;5062460;28;20104;-63
2022/05/04 09:50:15;;;;;;;7.15;2.22;;;11.50;99.90;;;;;;5051751;28;20053;-65
2022/05/04 09:52:47;;;;;;;4.60;1.75;;;11.60;99.90;;;;;;5048693;28;20097;-62
2022/05/04 09:55:22;;;;;;;6.35;1.88;;;11.60;99.90;;;;;;5047674;28;20115;-68
2022/05/04 09:57:48;;;;;;;7.75;2.00;;;11.70;99.90;;;;;;5053114;28;20583;-62
2022/05/04 10:00:21;;;;;;;7.78;2.55;;;11.80;99.90;;;;;;5061989;28;20425;-62
2022/05/04 10:02:51;;;;;;;4.75;1.75;;;11.80;99.90;;;;;;5054963;28;20106;-62
2022/05/04 10:05:17;;;;;;;6.20;2.20;;;11.80;99.90;;;;;;5059991;28;20045;-62
2022/05/04 10:07:44;;;;;;;9.57;2.40;;;11.70;99.20;;;;;;5066570;28;20048;-62
2022/05/04 10:10:11;;;;;;;6.95;2.10;;;11.70;99.90;;;;;;5054800;28;20045;-62
2022/05/04 10:12:44;;;;;;;5.85;1.92;;;11.70;99.90;;;;;;5056051;28;20079;-62
2022/05/04 10:15:12;;;;;;;7.50;2.25;;;11.90;99.90;;;;;;5059313;28;20052;-63
2022/05/04 10:17:49;;;;;;;2.80;1.45;;;11.90;99.40;;;;;;5060716;28;20432;-62
2022/05/04 10:20:48;;;;;;;5.57;2.13;;;12.10;99.90;;;;;;5057149;28;20055;-62
2022/05/04 10:23:16;;;;;;;5.07;1.50;;;12.00;97.20;;;;;;5037520;28;20098;-62
2022/05/04 10:25:42;;;;;;;10.25;1.98;;;12.10;99.80;;;;;;5045304;28;20052;-62
2022/05/04 10:28:12;;;;;;;6.13;1.75;;;12.20;99.20;;;;;;5046166;28;20056;-63
2022/05/04 10:30:55;;;;;;;5.75;2.03;;;12.20;98.40;;;;;;5045622;28;20055;-61
2022/05/04 10:33:25;;;;;;;6.95;1.73;;;12.30;99.50;;;;;;5045613;28;20517;-62
2022/05/04 10:35:51;;;;;;;4.43;1.60;;;12.40;98.50;;;;;;5044917;28;20124;-62
2022/05/04 10:38:30;;;;;;;4.35;1.80;;;12.40;99.30;;;;;;5044134;28;20323;-61
2022/05/04 10:41:06;;;;;;;4.82;1.70;;;12.40;98.10;;;;;;5045595;28;20053;-63
2022/05/04 10:43:41;;;;;;;4.93;1.77;;;12.40;97.80;;;;;;5044133;28;20390;-61
2022/05/04 10:46:30;;;;;;;4.55;1.65;;;12.50;97.00;;;;;;5044748;28;20037;-63
2022/05/04 10:49:05;;;;;;;6.68;1.70;;;12.50;95.80;;;;;;5044190;28;20049;-62
2022/05/04 10:51:38;;;;;;;6.47;1.70;;;12.50;96.50;;;;;;5044625;28;20049;-62
2022/05/04 10:54:18;;;;;;;4.25;1.50;;;12.50;95.40;;;;;;5044753;28;20041;-62
2022/05/04 10:56:52;;;;;;;4.10;1.60;;;12.40;95.60;;;;;;5044131;28;20051;-62
2022/05/04 10:59:34;;;;;;;6.43;1.85;;;12.30;95.60;;;;;;5044762;28;20503;-62
2022/05/04 11:02:04;;;;;;;8.45;2.05;;;12.30;95.90;;;;;;5044727;28;20053;-63
2022/05/04 11:04:34;;;;;;;4.43;1.67;;;12.20;96.30;;;;;;5046889;28;20041;-62
2022/05/04 11:07:06;;;;;;;4.85;1.85;;;12.30;99.80;;;;;;5048108;28;20045;-64
2022/05/04 11:09:42;;;;;;;5.05;1.85;;;12.60;98.90;;;;;;5048698;28;20085;-62
2022/05/04 11:12:10;;;;;;;6.03;1.75;;;12.80;98.60;;;;;;5047830;28;20049;-63
2022/05/04 11:14:36;;;;;;;8.68;2.72;;;13.00;98.30;;;;;;5048454;28;20081;-64
2022/05/04 11:17:08;;;;;;;7.00;1.80;;;13.10;96.50;;;;;;5048262;28;20090;-62
2022/05/04 11:19:34;;;;;;;6.18;2.17;;;13.10;95.90;;;;;;5047618;28;20055;-62
2022/05/04 11:22:01;;;;;;;5.32;1.75;;;12.90;94.90;;;;;;5048155;28;20044;-63
2022/05/04 11:24:28;;;;;;;6.97;1.70;;;12.80;94.30;;;;;;5048878;28;20037;-65
2022/05/04 11:26:55;;;;;;;11.02;2.13;;;12.70;94.10;;;;;;5048491;28;20072;-62
2022/05/04 11:29:24;;;;;;;7.10;2.33;;;12.80;94.20;;;;;;5047911;28;20041;-62
2022/05/04 11:31:58;;;;;;;8.27;2.28;;;13.00;94.90;;;;;;5047445;28;20106;-62
2022/05/04 11:34:26;;;;;;;6.72;2.03;;;13.10;95.10;;;;;;5048659;28;20107;-62
2022/05/04 11:36:53;;;;;;;7.50;1.95;;;13.30;94.60;;;;;;5048170;28;20088;-62
2022/05/04 11:39:24;;;;;;;7.10;1.80;;;13.50;94.80;;;;;;5047131;28;20633;-61
2022/05/04 11:41:55;;;;;;;3.63;1.95;;;13.40;92.10;;;;;;5048013;28;20081;-62
2022/05/04 11:44:23;;;;;;;5.22;1.92;;;13.20;91.00;;;;;;5047602;28;20049;-61
2022/05/04 11:46:54;;;;;;;5.10;1.73;;;13.00;92.50;;;;;;5047032;28;20222;-62
2022/05/04 11:49:21;;;;;;;4.97;2.05;;;13.00;95.20;;;;;;5047401;28;20576;-61
2022/05/04 11:51:48;;;;;;;5.13;1.77;;;13.00;92.40;;;;;;5047861;28;20070;-62
2022/05/04 11:54:14;;;;;;;10.50;1.92;;;13.20;92.00;;;;;;5046657;28;20470;-62
2022/05/04 11:56:39;;;;;;;6.75;2.25;;;13.40;92.80;;;;;;5047659;28;20120;-62
2022/05/04 11:59:07;;;;;;;4.00;1.83;;;13.60;92.30;;;;;;5047192;28;20040;-62
2022/05/04 12:01:33;;;;;;;4.85;1.73;;;13.80;91.50;;;;;;5047430;28;20056;-63
2022/05/04 12:04:00;;;;;;;5.90;1.70;;;14.00;91.30;;;;;;5046748;28;20396;-66
2022/05/04 12:06:27;;;;;;;5.03;2.03;;;14.20;90.00;;;;;;5048056;28;20072;-62
2022/05/04 12:08:54;;;;;;;4.38;1.48;;;14.20;84.30;;;;;;5046999;28;20124;-62
2022/05/04 12:11:20;;;;;;;5.53;1.90;;;14.20;83.90;;;;;;5047184;28;20055;-62
2022/05/04 12:13:47;;;;;;;4.32;1.60;;;14.20;83.20;;;;;;5046159;28;20044;-61
2022/05/04 12:16:13;;;;;;;2.65;1.52;;;14.10;82.10;;;;;;5045732;28;20057;-63
2022/05/04 12:18:39;;;;;;;5.82;1.85;;;14.20;81.50;;;;;;5047589;28;20036;-62
2022/05/04 12:21:13;;;;;;;3.20;1.52;;;14.20;78.80;;;;;;5046462;28;20080;-63
2022/05/04 12:23:48;;;;;;;8.68;2.30;;;14.20;82.10;;;;;;5047299;28;20052;-63
2022/05/04 12:26:14;;;;;;;2.22;1.60;;;14.10;80.90;;;;;;5046518;28;20702;-61
2022/05/04 12:28:42;;;;;;;5.13;1.70;;;14.20;83.50;;;;;;5046506;28;20080;-62
2022/05/04 12:33:59;;;;;;;3.33;1.90;;;14.50;82.90;;;;;;5047746;28;20103;-63
2022/05/04 12:36:25;;;;;;;5.32;2.30;;;14.60;84.20;;;;;;5046918;28;20045;-63
2022/05/04 12:38:53;;;;;;;5.30;2.50;;;14.90;87.40;;;;;;5046934;28;20506;-62
2022/05/04 12:41:21;;;;;;;3.90;1.70;;;15.10;86.80;;;;;;5046841;28;20301;-62
2022/05/04 12:43:49;;;;;;;3.47;1.35;;;15.10;86.50;;;;;;5046263;28;20051;-64
2022/05/04 12:46:16;;;;;;;3.45;1.75;;;15.20;80.70;;;;;;5046382;28;20052;-62
2022/05/04 12:48:43;;;;;;;3.97;1.83;;;15.30;81.10;;;;;;5046376;28;20102;-63
2022/05/04 12:51:10;;;;;;;5.03;1.65;;;15.30;78.70;;;;;;5045621;28;20044;-63
2022/05/04 12:53:39;;;;;;;4.10;1.65;;;15.30;78.00;;;;;;5046870;28;20045;-62
2022/05/04 12:58:51;;;;;;;6.18;2.25;;;15.30;75.30;;;;;;5046248;28;20049;-64
2022/05/04 13:01:22;;;;;;;4.72;2.03;;;15.40;75.70;;;;;;5046071;28;20495;-62
2022/05/04 13:03:48;;;;;;;7.45;2.45;;;15.50;74.40;;;;;;5044447;28;20499;-62
2022/05/04 13:06:13;;;;;;;4.18;1.98;;;15.50;75.60;;;;;;5046301;28;20057;-62
2022/05/04 13:08:39;;;;;;;9.98;1.95;;;15.60;82.20;;;;;;5046439;28;20037;-65
2022/05/04 13:11:05;;;;;;;7.18;2.25;;;15.60;78.10;;;;;;5045562;28;20084;-63
2022/05/04 13:13:30;;;;;;;6.53;1.70;;;15.40;72.20;;;;;;5046406;28;20485;-62
2022/05/04 13:15:56;;;;;;;8.00;2.28;;;15.50;73.40;;;;;;5046512;28;20049;-62
2022/05/04 13:18:22;;;;;;;5.38;2.00;;;15.40;75.90;;;;;;5045304;28;20467;-62
2022/05/04 13:20:49;;;;;;;7.78;2.00;;;15.50;75.50;;;;;;5046313;28;20477;-63
2022/05/04 13:23:15;;;;;;;6.13;2.15;;;15.60;75.10;;;;;;5045742;28;20048;-62
2022/05/04 13:25:41;;;;;;;8.20;2.88;;;15.80;75.60;;;;;;5044792;28;20102;-61
2022/05/04 13:28:06;;;;;;;4.03;2.20;;;15.90;72.50;;;;;;5045659;28;20049;-62
2022/05/04 13:30:32;;;;;;;7.05;2.13;;;15.90;72.00;;;;;;5046000;28;20048;-62